createdAt,value
2019-04-11T00:01:03.857Z,5.87
2019-04-11T00:03:33.751Z,6.07
2019-04-11T00:06:03.369Z,6.33
2019-04-11T00:08:34.152Z,5.87
2019-04-11T00:11:05.840Z,6.10
2019-04-11T00:13:36.544Z,5.97
2019-04-11T00:16:08.755Z,5.60
2019-04-11T00:18:38.828Z,5.73
2019-04-11T00:21:08.720Z,6.07
2019-04-11T00:23:38.679Z,5.77
2019-04-11T00:26:08.427Z,5.80
2019-04-11T00:28:39.309Z,6.37
2019-04-11T00:31:09.068Z,6.83
2019-04-11T00:33:38.795Z,6.23
2019-04-11T00:36:08.582Z,6.10
2019-04-11T00:38:40.211Z,5.87
2019-04-11T00:41:09.969Z,6.40
2019-04-11T00:43:42.146Z,6.77
2019-04-11T00:46:11.943Z,6.23
2019-04-11T00:48:41.887Z,6.37
2019-04-11T00:51:11.906Z,6.60
2019-04-11T00:53:42.380Z,6.50
2019-04-11T00:56:12.398Z,5.80
2019-04-11T00:58:41.970Z,5.70
2019-04-11T01:01:11.563Z,6.30
2019-04-11T01:03:41.281Z,6.50
2019-04-11T01:06:10.660Z,5.83
2019-04-11T01:08:40.333Z,6.20
2019-04-11T01:11:10.045Z,5.83
2019-04-11T01:13:48.593Z,5.60
2019-04-11T01:16:28.408Z,5.73
2019-04-11T01:18:58.329Z,5.97
2019-04-11T01:21:28.569Z,5.70
2019-04-11T01:23:58.168Z,6.00
2019-04-11T01:26:28.253Z,5.83
2019-04-11T01:28:58.680Z,5.57
2019-04-11T01:31:30.507Z,6.43
2019-04-11T01:34:00.560Z,6.03
2019-04-11T01:36:31.074Z,6.23
2019-04-11T01:39:03.078Z,5.00
2019-04-11T01:41:32.932Z,5.60
2019-04-11T01:44:05.503Z,6.07
2019-04-11T01:46:34.018Z,5.73
2019-04-11T01:49:14.220Z,5.23
2019-04-11T01:51:43.792Z,6.00
2019-04-11T01:54:13.301Z,5.63
2019-04-11T01:56:43.438Z,5.87
2019-04-11T01:59:13.220Z,5.13
2019-04-11T02:01:51.220Z,5.90
2019-04-11T02:04:24.958Z,5.70
2019-04-11T02:06:54.513Z,5.50
2019-04-11T02:09:24.194Z,5.53
2019-04-11T02:11:54.051Z,5.50
2019-04-11T02:14:24.157Z,5.60
2019-04-11T02:16:53.727Z,5.70
2019-04-11T02:19:23.900Z,5.63
2019-04-11T02:21:55.019Z,6.20
2019-04-11T02:24:32.006Z,6.07
2019-04-11T02:27:17.141Z,5.90
2019-04-11T02:29:46.807Z,6.07
2019-04-11T02:32:18.532Z,6.00
2019-04-11T02:34:50.445Z,5.90
2019-04-11T02:37:19.801Z,6.07
2019-04-11T02:39:51.583Z,6.10
2019-04-11T02:42:21.489Z,6.03
2019-04-11T02:45:11.447Z,5.97
2019-04-11T02:47:27.572Z,6.33
2019-04-11T02:49:55.128Z,5.43
2019-04-11T02:52:25.410Z,5.03
2019-04-11T02:54:56.894Z,5.47
2019-04-11T02:57:26.614Z,6.13
2019-04-11T02:59:56.492Z,5.93
2019-04-11T03:02:26.801Z,6.07
2019-04-11T03:04:56.672Z,6.23
2019-04-11T03:07:26.542Z,5.77
2019-04-11T03:09:56.786Z,5.87
2019-04-11T03:12:27.543Z,5.27
2019-04-11T03:15:13.013Z,6.17
2019-04-11T03:17:34.131Z,6.07
2019-04-11T03:20:14.361Z,6.00
2019-04-11T03:22:32.144Z,6.40
2019-04-11T03:25:03.187Z,6.13
2019-04-11T03:27:34.737Z,5.83
2019-04-11T03:30:10.053Z,6.20
2019-04-11T03:33:34.804Z,5.60
2019-04-11T03:37:58.890Z,5.87
2019-04-11T03:40:25.976Z,6.23
2019-04-11T03:42:53.904Z,5.53
2019-04-11T03:45:34.362Z,6.03
2019-04-11T03:48:04.043Z,6.27
2019-04-11T03:50:23.284Z,6.20
2019-04-11T03:52:49.593Z,6.40
2019-04-11T03:55:21.700Z,5.83
2019-04-11T03:57:54.256Z,6.13
2019-04-11T04:00:24.805Z,6.43
2019-04-11T04:02:55.864Z,6.17
2019-04-11T04:05:28.572Z,5.53
2019-04-11T04:07:59.658Z,6.13
2019-04-11T04:10:31.797Z,6.17
2019-04-11T04:13:03.264Z,5.87
2019-04-11T04:15:59.946Z,6.13
2019-04-11T04:18:36.379Z,5.73
2019-04-11T04:21:35.842Z,6.30
2019-04-11T04:24:25.280Z,6.43
2019-04-11T04:26:56.779Z,5.97
2019-04-11T04:29:29.154Z,6.00
2019-04-11T04:31:59.498Z,6.17
2019-04-11T04:34:31.639Z,6.73
2019-04-11T04:37:01.242Z,6.07
2019-04-11T04:39:31.360Z,5.77
2019-04-11T04:42:08.179Z,5.83
2019-04-11T04:44:33.416Z,6.47
2019-04-11T04:47:13.958Z,5.73
2019-04-11T04:49:36.451Z,5.47
2019-04-11T04:52:29.053Z,6.20
2019-04-11T04:54:59.469Z,6.00
2019-04-11T04:57:31.734Z,5.87
2019-04-11T05:00:02.584Z,5.90
2019-04-11T05:02:32.679Z,6.03
2019-04-11T05:05:06.145Z,6.00
2019-04-11T05:07:39.999Z,6.30
2019-04-11T05:10:08.666Z,5.80
2019-04-11T05:12:38.789Z,5.43
2019-04-11T05:15:10.069Z,5.77
2019-04-11T05:17:41.831Z,6.07
2019-04-11T05:20:11.953Z,6.70
2019-04-11T05:22:41.876Z,5.77
2019-04-11T05:25:12.538Z,5.60
2019-04-11T05:27:42.183Z,6.17
2019-04-11T05:30:12.299Z,5.57
2019-04-11T05:32:42.072Z,6.03
2019-04-11T05:35:11.541Z,6.37
2019-04-11T05:37:40.944Z,6.10
2019-04-11T05:40:10.636Z,6.33
2019-04-11T05:42:40.055Z,6.30
2019-04-11T05:45:15.699Z,5.77
2019-04-11T05:47:41.492Z,6.67
2019-04-11T05:50:32.040Z,5.90
2019-04-11T05:53:03.920Z,6.70
2019-04-11T05:55:36.498Z,6.37
2019-04-11T05:58:11.023Z,6.50
2019-04-11T06:01:01.240Z,6.70
2019-04-11T06:03:32.326Z,6.33
2019-04-11T06:06:20.479Z,6.70
2019-04-11T06:08:51.472Z,6.00
2019-04-11T06:11:43.169Z,6.50
2019-04-11T06:14:31.609Z,6.60
2019-04-11T06:17:05.165Z,7.33
2019-04-11T06:20:06.182Z,7.47
2019-04-11T06:22:38.139Z,6.50
2019-04-11T06:25:25.654Z,5.80
2019-04-11T06:28:14.823Z,6.37
2019-04-11T06:31:04.525Z,6.20
2019-04-11T06:34:02.424Z,6.77
2019-04-11T06:36:49.883Z,6.30
2019-04-11T06:39:37.790Z,6.50
2019-04-11T06:42:27.604Z,6.77
2019-04-11T06:45:11.053Z,5.70
2019-04-11T06:48:02.605Z,5.70
2019-04-11T06:50:57.657Z,5.30
2019-04-11T06:53:32.168Z,5.53
2019-04-11T06:56:21.025Z,5.20
2019-04-11T06:58:55.293Z,5.87
2019-04-11T07:01:27.982Z,5.77
2019-04-11T07:04:11.426Z,5.53
2019-04-11T07:06:42.436Z,5.50
2019-04-11T07:09:37.187Z,5.10
2019-04-11T07:12:10.541Z,4.77
2019-04-11T07:14:50.410Z,5.03
2019-04-11T07:17:38.602Z,4.80
2019-04-11T07:20:27.299Z,5.63
2019-04-11T07:23:18.588Z,5.97
2019-04-11T07:25:54.372Z,4.97
2019-04-11T07:28:41.925Z,6.03
2019-04-11T07:31:31.959Z,5.03
2019-04-11T07:34:37.721Z,5.37
2019-04-11T07:37:26.096Z,5.03
2019-04-11T07:40:27.166Z,5.43
2019-04-11T07:43:13.472Z,5.13
2019-04-11T07:46:00.375Z,4.93
2019-04-11T07:48:33.733Z,5.27
2019-04-11T07:51:27.611Z,4.90
2019-04-11T07:54:00.191Z,4.60
2019-04-11T07:56:52.777Z,4.43
2019-04-11T07:59:41.879Z,4.93
2019-04-11T08:02:29.514Z,4.73
2019-04-11T08:05:19.099Z,4.70
2019-04-11T08:08:06.803Z,4.63
2019-04-11T08:10:43.595Z,5.20
2019-04-11T08:13:18.473Z,4.67
2019-04-11T08:16:06.383Z,4.93
2019-04-11T08:19:07.693Z,5.10
2019-04-11T08:21:54.661Z,5.03
2019-04-11T08:24:30.325Z,4.93
2019-04-11T08:27:50.022Z,5.13
2019-04-11T08:30:08.757Z,5.00
2019-04-11T08:33:09.151Z,5.10
2019-04-11T08:35:55.602Z,4.90
2019-04-11T08:38:36.382Z,4.70
2019-04-11T08:41:23.194Z,4.60
2019-04-11T08:43:53.213Z,4.93
2019-04-11T08:46:26.880Z,4.87
2019-04-11T08:48:59.445Z,5.03
2019-04-11T08:51:29.466Z,5.13
2019-04-11T08:54:17.463Z,5.67
2019-04-11T08:56:47.465Z,5.03
2019-04-11T08:59:51.861Z,5.00
2019-04-11T09:02:29.033Z,5.00
2019-04-11T09:05:18.791Z,5.37
2019-04-11T09:07:54.437Z,4.90
2019-04-11T09:10:42.438Z,4.40
2019-04-11T09:13:31.376Z,5.07
2019-04-11T09:16:18.416Z,5.47
2019-04-11T09:18:48.246Z,5.33
2019-04-11T09:21:46.641Z,5.37
2019-04-11T09:24:44.453Z,5.23
2019-04-11T09:27:36.517Z,4.90
2019-04-11T09:30:13.385Z,5.27
2019-04-11T09:33:01.411Z,5.73
2019-04-11T09:35:31.257Z,5.37
2019-04-11T09:38:00.726Z,5.43
2019-04-11T09:40:48.126Z,5.60
2019-04-11T09:43:20.044Z,5.17
2019-04-11T09:46:08.194Z,5.20
2019-04-11T09:48:59.655Z,5.43
2019-04-11T09:51:44.589Z,5.50
2019-04-11T09:54:28.516Z,5.50
2019-04-11T09:57:17.033Z,5.73
2019-04-11T10:00:04.145Z,5.73
2019-04-11T10:03:01.763Z,5.30
2019-04-11T10:05:53.117Z,6.10
2019-04-11T10:08:37.341Z,5.90
2019-04-11T10:11:26.035Z,5.30
2019-04-11T10:14:01.711Z,5.60
2019-04-11T10:16:50.653Z,5.73
2019-04-11T10:19:27.715Z,5.07
2019-04-11T10:22:15.143Z,5.50
2019-04-11T10:24:54.761Z,5.97
2019-04-11T10:27:53.081Z,6.37
2019-04-11T10:30:51.440Z,5.50
2019-04-11T10:33:59.414Z,5.60
2019-04-11T10:36:51.623Z,5.20
2019-04-11T10:39:41.688Z,5.77
2019-04-11T10:42:13.056Z,5.40
2019-04-11T10:45:07.607Z,5.93
2019-04-11T10:47:37.131Z,5.50
2019-04-11T10:50:24.216Z,5.47
2019-04-11T10:52:56.131Z,5.50
2019-04-11T10:55:37.856Z,5.70
2019-04-11T10:58:12.926Z,5.40
2019-04-11T11:00:53.644Z,5.67
2019-04-11T11:03:34.109Z,6.00
2019-04-11T11:06:03.640Z,6.10
2019-04-11T11:08:43.748Z,5.90
2019-04-11T11:11:18.307Z,6.10
2019-04-11T11:14:05.215Z,6.13
2019-04-11T11:16:44.395Z,5.80
2019-04-11T11:19:45.781Z,5.90
2019-04-11T11:22:16.975Z,5.80
2019-04-11T11:25:12.734Z,6.17
2019-04-11T11:27:41.609Z,6.17
2019-04-11T11:30:49.563Z,6.50
2019-04-11T11:33:22.209Z,6.20
2019-04-11T11:36:11.109Z,6.00
2019-04-11T11:38:41.885Z,6.23
2019-04-11T11:41:33.560Z,6.23
2019-04-11T11:44:03.485Z,6.23
2019-04-11T11:47:03.365Z,6.17
2019-04-11T11:49:44.875Z,6.40
2019-04-11T11:52:21.129Z,6.57
2019-04-11T11:54:53.572Z,6.70
2019-04-11T11:57:35.073Z,6.70
2019-04-11T12:00:12.698Z,6.97
2019-04-11T12:03:13.211Z,6.60
2019-04-11T12:05:55.087Z,6.23
2019-04-11T12:08:58.776Z,6.67
2019-04-11T12:11:28.542Z,6.53
2019-04-11T12:14:24.290Z,6.13
2019-04-11T12:17:12.738Z,5.87
2019-04-11T12:19:53.827Z,6.60
2019-04-11T12:22:22.541Z,6.70
2019-04-11T12:25:00.638Z,6.50
2019-04-11T12:28:07.578Z,6.50
2019-04-11T12:30:46.169Z,6.60
2019-04-11T12:33:54.012Z,6.10
2019-04-11T12:36:30.543Z,5.93
2019-04-11T12:39:18.663Z,6.67
2019-04-11T12:42:19.136Z,6.47
2019-04-11T12:45:06.529Z,7.07
2019-04-11T12:47:55.326Z,6.53
2019-04-11T12:50:42.532Z,6.37
2019-04-11T12:53:13.966Z,6.53
2019-04-11T12:56:05.372Z,6.20
2019-04-11T12:59:09.542Z,6.27
2019-04-11T13:01:56.641Z,6.20
2019-04-11T13:04:33.682Z,7.00
2019-04-11T13:07:14.503Z,6.23
2019-04-11T13:09:48.403Z,6.30
2019-04-11T13:12:35.074Z,5.87
2019-04-11T13:15:30.467Z,6.57
2019-04-11T13:18:18.885Z,5.87
2019-04-11T13:21:10.610Z,6.40
2019-04-11T13:24:02.021Z,6.53
2019-04-11T13:26:56.190Z,6.03
2019-04-11T13:30:02.752Z,6.30
2019-04-11T13:32:37.384Z,6.70
2019-04-11T13:35:14.936Z,5.97
2019-04-11T13:38:02.197Z,6.17
2019-04-11T13:40:56.662Z,6.63
2019-04-11T13:43:31.705Z,6.23
2019-04-11T13:46:19.616Z,6.30
2019-04-11T13:49:17.286Z,5.90
2019-04-11T13:52:08.544Z,6.43
2019-04-11T13:55:06.437Z,6.60
2019-04-11T13:57:57.934Z,6.00
2019-04-11T14:00:45.311Z,6.33
2019-04-11T14:03:33.634Z,6.00
2019-04-11T14:06:08.796Z,6.80
2019-04-11T14:08:50.434Z,6.30
2019-04-11T14:11:19.922Z,5.90
2019-04-11T14:13:50.191Z,6.47
2019-04-11T14:16:21.569Z,8.40
2019-04-11T14:19:12.405Z,6.20
2019-04-11T14:21:43.781Z,5.93
2019-04-11T14:24:41.567Z,5.97
2019-04-11T14:27:17.826Z,6.80
2019-04-11T14:30:06.210Z,6.47
2019-04-11T14:32:38.750Z,6.63
2019-04-11T14:35:26.277Z,6.20
2019-04-11T14:38:14.570Z,6.50
2019-04-11T14:41:05.927Z,6.30
2019-04-11T14:43:48.428Z,6.27
2019-04-11T14:46:25.845Z,6.20
2019-04-11T14:49:01.229Z,6.70
2019-04-11T14:51:58.974Z,6.20
2019-04-11T14:54:36.890Z,6.10
2019-04-11T14:57:11.686Z,6.83
2019-04-11T14:59:44.092Z,6.03
2019-04-11T15:02:20.985Z,6.57
2019-04-11T15:05:25.336Z,6.57
2019-04-11T15:07:55.929Z,6.30
2019-04-11T15:10:43.009Z,6.20
2019-04-11T15:13:15.720Z,6.07
2019-04-11T15:16:04.878Z,6.40
2019-04-11T15:18:37.634Z,5.73
2019-04-11T15:21:23.357Z,6.13
2019-04-11T15:23:55.734Z,6.27
2019-04-11T15:26:42.044Z,6.33
2019-04-11T15:29:17.357Z,5.90
2019-04-11T15:32:14.579Z,5.77
2019-04-11T15:34:52.779Z,5.50
2019-04-11T15:37:46.810Z,5.93
2019-04-11T15:40:28.470Z,5.43
2019-04-11T15:43:29.313Z,5.80
2019-04-11T15:46:04.859Z,5.57
2019-04-11T15:49:02.602Z,5.50
2019-04-11T15:51:53.757Z,6.10
2019-04-11T15:54:42.389Z,6.27
2019-04-11T15:57:31.353Z,5.83
2019-04-11T16:00:26.304Z,5.47
2019-04-11T16:03:13.362Z,5.40
2019-04-11T16:06:02.160Z,5.80
2019-04-11T16:08:43.774Z,5.77
2019-04-11T16:11:38.769Z,5.20
2019-04-11T16:14:14.116Z,5.70
2019-04-11T16:17:13.829Z,5.70
2019-04-11T16:19:57.608Z,4.83
2019-04-11T16:22:56.019Z,5.83
2019-04-11T16:25:28.953Z,5.83
2019-04-11T16:28:21.524Z,5.83
2019-04-11T16:30:52.717Z,5.90
2019-04-11T16:33:41.120Z,5.70
2019-04-11T16:36:32.546Z,5.80
2019-04-11T16:39:19.956Z,5.73
2019-04-11T16:42:01.785Z,5.80
2019-04-11T16:44:56.461Z,5.50
2019-04-11T16:47:44.765Z,5.53
2019-04-11T16:50:14.135Z,5.53
2019-04-11T16:52:43.953Z,5.70
2019-04-11T16:55:13.838Z,6.17
2019-04-11T16:57:44.331Z,5.40
2019-04-11T17:00:15.004Z,6.40
2019-04-11T17:02:44.760Z,6.10
2019-04-11T17:05:14.238Z,5.87
2019-04-11T17:08:17.890Z,6.70
2019-04-11T17:11:22.241Z,7.80
2019-04-11T17:13:52.109Z,7.23
2019-04-11T17:16:22.126Z,6.37
2019-04-11T17:18:51.734Z,7.30
2019-04-11T17:21:23.331Z,7.10
2019-04-11T17:23:53.266Z,7.33
2019-04-11T17:26:23.812Z,8.13
2019-04-11T17:28:54.342Z,7.43
2019-04-11T17:31:25.997Z,7.30
2019-04-11T17:33:56.704Z,7.37
2019-04-11T17:36:27.116Z,7.40
2019-04-11T17:38:56.533Z,6.57
2019-04-11T17:41:26.065Z,6.97
2019-04-11T17:43:56.053Z,6.13
2019-04-11T17:46:26.915Z,6.50
2019-04-11T17:48:56.812Z,5.70
2019-04-11T17:51:26.301Z,6.03
2019-04-11T17:53:56.262Z,6.30
2019-04-11T17:56:26.058Z,6.13
2019-04-11T17:58:58.222Z,5.07
2019-04-11T18:01:27.557Z,5.17
2019-04-11T18:03:57.322Z,5.20
2019-04-11T18:06:26.761Z,5.47
2019-04-11T18:08:56.529Z,5.20
2019-04-11T18:11:26.691Z,5.37
2019-04-11T18:13:56.256Z,5.97
2019-04-11T18:16:25.676Z,4.97
2019-04-11T18:18:55.213Z,5.43
2019-04-11T18:21:24.887Z,4.70
2019-04-11T18:23:54.334Z,5.17
2019-04-11T18:26:23.786Z,5.40
2019-04-11T18:28:53.212Z,5.60
2019-04-11T18:31:25.005Z,5.70
2019-04-11T18:33:54.666Z,5.33
2019-04-11T18:36:24.471Z,4.90
2019-04-11T18:38:54.290Z,4.80
2019-04-11T18:41:23.712Z,5.03
2019-04-11T18:43:53.198Z,5.07
2019-04-11T18:46:23.358Z,4.80
2019-04-11T18:48:54.512Z,5.23
2019-04-11T18:51:41.613Z,5.23
2019-04-11T18:54:11.065Z,4.67
2019-04-11T18:56:40.657Z,5.67
2019-04-11T18:59:10.793Z,5.27
2019-04-11T19:01:40.517Z,5.10
2019-04-11T19:04:12.032Z,5.03
2019-04-11T19:06:43.059Z,5.03
2019-04-11T19:09:14.867Z,5.40
2019-04-11T19:11:46.378Z,5.40
2019-04-11T19:14:16.933Z,5.13
2019-04-11T19:16:46.877Z,5.30
2019-04-11T19:19:18.507Z,5.03
2019-04-11T19:21:50.745Z,5.40
2019-04-11T19:24:19.490Z,5.40
2019-04-11T19:26:49.018Z,5.17
2019-04-11T19:29:18.958Z,5.90
2019-04-11T19:31:48.311Z,5.00
2019-04-11T19:34:22.862Z,4.70
2019-04-11T19:36:52.642Z,5.27
2019-04-11T19:39:23.292Z,5.37
2019-04-11T19:41:52.805Z,4.80
2019-04-11T19:44:22.254Z,4.77
2019-04-11T19:46:51.820Z,5.43
2019-04-11T19:49:21.906Z,4.73
2019-04-11T19:51:51.770Z,5.13
2019-04-11T19:54:21.217Z,4.97
2019-04-11T19:56:59.053Z,5.40
2019-04-11T19:59:28.960Z,4.87
2019-04-11T20:01:58.524Z,4.90
2019-04-11T20:04:28.292Z,5.13
2019-04-11T20:06:58.415Z,5.70
2019-04-11T20:09:27.765Z,5.43
2019-04-11T20:11:57.904Z,5.20
2019-04-11T20:14:28.629Z,4.70
2019-04-11T20:16:58.350Z,4.93
2019-04-11T20:19:28.150Z,4.93
2019-04-11T20:21:57.718Z,5.40
2019-04-11T20:24:27.920Z,4.77
2019-04-11T20:26:57.708Z,5.43
2019-04-11T20:29:30.331Z,4.80
2019-04-11T20:31:59.815Z,5.07
2019-04-11T20:34:29.220Z,4.67
2019-04-11T20:36:58.691Z,5.20
2019-04-11T20:39:28.506Z,5.30
2019-04-11T20:41:58.013Z,5.23
2019-04-11T20:44:28.196Z,5.50
2019-04-11T20:47:00.204Z,5.33
2019-04-11T20:49:28.808Z,4.73
2019-04-11T20:51:58.229Z,5.70
2019-04-11T20:54:27.608Z,5.30
2019-04-11T20:56:57.047Z,5.73
2019-04-11T20:59:34.476Z,6.10
2019-04-11T21:01:57.995Z,5.70
2019-04-11T21:04:27.765Z,6.03
2019-04-11T21:07:01.773Z,5.30
2019-04-11T21:09:33.012Z,5.30
2019-04-11T21:12:00.137Z,5.63
2019-04-11T21:14:29.526Z,6.00
2019-04-11T21:16:59.348Z,6.10
2019-04-11T21:19:29.388Z,6.20
2019-04-11T21:21:58.746Z,5.90
2019-04-11T21:24:30.547Z,6.90
2019-04-11T21:26:59.774Z,6.37
2019-04-11T21:29:30.179Z,6.23
2019-04-11T21:32:01.172Z,7.00
2019-04-11T21:34:32.359Z,6.13
2019-04-11T21:37:02.733Z,5.83
2019-04-11T21:39:33.446Z,6.27
2019-04-11T21:42:05.874Z,6.10
2019-04-11T21:44:36.780Z,6.80
2019-04-11T21:47:07.376Z,5.60
2019-04-11T21:49:37.050Z,6.80
2019-04-11T21:52:11.945Z,6.50
2019-04-11T21:54:38.927Z,6.23
2019-04-11T21:57:08.693Z,6.60
2019-04-11T21:59:38.481Z,6.60
2019-04-11T22:02:09.818Z,6.90
2019-04-11T22:04:39.196Z,5.80
2019-04-11T22:07:08.606Z,6.33
2019-04-11T22:09:38.346Z,6.37
2019-04-11T22:12:08.800Z,6.63
2019-04-11T22:14:41.356Z,6.10
2019-04-11T22:17:10.237Z,6.40
2019-04-11T22:19:39.661Z,7.13
2019-04-11T22:22:09.850Z,6.90
2019-04-11T22:24:39.486Z,6.97
2019-04-11T22:27:09.585Z,7.53
2019-04-11T22:29:39.740Z,8.30
2019-04-11T22:32:09.188Z,7.43
2019-04-11T22:34:41.970Z,7.13
2019-04-11T22:37:11.526Z,7.07
2019-04-11T22:39:40.962Z,7.20
2019-04-11T22:42:10.421Z,7.63
2019-04-11T22:44:40.184Z,7.40
2019-04-11T22:47:09.958Z,6.97
2019-04-11T22:49:40.080Z,7.20
2019-04-11T22:52:11.477Z,7.03
2019-04-11T22:54:41.243Z,7.10
2019-04-11T22:57:12.824Z,7.30
2019-04-11T22:59:45.001Z,7.13
2019-04-11T23:02:22.589Z,7.20
2019-04-11T23:04:51.964Z,6.10
2019-04-11T23:07:21.346Z,7.23
2019-04-11T23:09:51.108Z,6.47
2019-04-11T23:12:20.485Z,6.30
2019-04-11T23:14:49.857Z,7.70
2019-04-11T23:17:19.241Z,6.60
2019-04-11T23:19:48.661Z,7.00
2019-04-11T23:22:18.325Z,7.33
2019-04-11T23:24:48.115Z,7.13
2019-04-11T23:27:17.828Z,6.80
2019-04-11T23:29:48.341Z,7.10
2019-04-11T23:32:18.839Z,5.60
2019-04-11T23:34:49.879Z,6.60
2019-04-11T23:37:21.755Z,6.27
2019-04-11T23:39:51.730Z,7.20
2019-04-11T23:42:21.139Z,7.00
2019-04-11T23:44:51.238Z,6.47
2019-04-11T23:47:23.073Z,6.80
2019-04-11T23:49:55.068Z,6.23
2019-04-11T23:52:26.431Z,6.83
2019-04-11T23:54:55.273Z,6.87
2019-04-11T23:57:25.376Z,6.20
2019-04-11T23:59:55.434Z,6.10
